KSGF/SGF METAR and TAF weather

Enter ICAO airport designator
Station Type Date Time Source
KSGF METAR 2021/09/28 04:52 UTC NOAA

KSGF 280452Z 17008KT 10SM CLR 20/14 A2994 RMK AO2 SLP127 T02000139


Station Type Date Time Source
KSGF Decoded METAR 2021/09/28 04:52 UTC NOAA

SPRINGFIELD-BRANSON NATIONAL, MO, United States (KSGF) 37-14N 93-23W 389M
Sep 28, 2021 - 12:52 AM EDT / 2021.09.28 0452 UTC
Wind: from the S (170 degrees) at 9 MPH (8 KT):0
Visibility: 10 mile(s):0
Sky conditions: clear
Temperature: 68.0 F (20.0 C)
Dew Point: 57.0 F (13.9 C)
Relative Humidity: 67%
Pressure (altimeter): 29.94 in. Hg (1013 hPa)
ob: KSGF 280452Z 17008KT 10SM CLR 20/14 A2994 RMK AO2 SLP127 T02000139
cycle: 5

Station Type Date Time Source
KSGF TAF 2021/09/27 18:22 UTC NOAA

TAF KSGF 271720Z 2718/2818 22014G21KT P6SM SKC
FM280100 19007KT P6SM FEW250

Example: see airport list